createdAt,value
2019-03-28T00:00:39.931Z,89.20
2019-03-28T00:03:10.320Z,89.00
2019-03-28T00:05:40.590Z,90.20
2019-03-28T00:08:12.619Z,90.40
2019-03-28T00:10:43.885Z,90.40
2019-03-28T00:13:14.001Z,91.70
2019-03-28T00:15:44.461Z,90.80
2019-03-28T00:18:15.851Z,90.10
2019-03-28T00:20:46.444Z,89.80
2019-03-28T00:23:41.951Z,90.20
2019-03-28T00:26:13.796Z,90.40
2019-03-28T00:28:44.117Z,90.50
2019-03-28T00:31:14.737Z,89.90
2019-03-28T00:33:45.311Z,89.50
2019-03-28T00:36:17.111Z,89.60
2019-03-28T00:38:47.641Z,89.10
2019-03-28T00:41:18.094Z,89.00
2019-03-28T00:43:48.225Z,89.20
2019-03-28T00:46:19.413Z,90.30
2019-03-28T00:48:49.921Z,91.20
2019-03-28T00:51:20.185Z,90.20
2019-03-28T00:53:50.734Z,90.60
2019-03-28T00:56:21.340Z,89.70
2019-03-28T00:58:53.218Z,89.20
2019-03-28T01:01:23.817Z,89.40
2019-03-28T01:04:00.764Z,89.00
2019-03-28T01:06:31.182Z,89.70
2019-03-28T01:09:04.121Z,91.00
2019-03-28T01:11:33.604Z,90.70
2019-03-28T01:14:04.090Z,90.90
2019-03-28T01:16:34.588Z,89.80
2019-03-28T01:19:05.702Z,89.20
2019-03-28T01:21:41.689Z,90.30
2019-03-28T01:24:12.175Z,89.60
2019-03-28T01:26:51.881Z,89.20
2019-03-28T01:29:15.425Z,88.80
2019-03-28T01:31:46.739Z,88.90
2019-03-28T01:34:17.643Z,89.40
2019-03-28T01:36:48.588Z,89.20
2019-03-28T01:39:19.120Z,88.90
2019-03-28T01:41:49.216Z,91.10
2019-03-28T01:44:20.052Z,90.50
2019-03-28T01:46:50.321Z,91.70
2019-03-28T01:49:22.332Z,90.00
2019-03-28T01:51:52.818Z,90.50
2019-03-28T01:54:23.345Z,89.50
2019-03-28T01:56:53.601Z,90.40
2019-03-28T01:59:25.019Z,90.70
2019-03-28T02:01:55.209Z,92.00
2019-03-28T02:04:25.714Z,92.40
2019-03-28T02:06:56.219Z,91.90
2019-03-28T02:09:30.401Z,92.80
2019-03-28T02:12:00.609Z,91.50
2019-03-28T02:14:30.937Z,90.60
2019-03-28T02:17:01.406Z,90.80
2019-03-28T02:19:33.318Z,91.10
2019-03-28T02:22:03.567Z,91.60
2019-03-28T02:24:35.079Z,91.80
2019-03-28T02:27:07.841Z,91.70
2019-03-28T02:29:38.051Z,91.40
2019-03-28T02:32:08.555Z,90.20
2019-03-28T02:34:39.240Z,89.50
2019-03-28T02:37:11.119Z,89.50
2019-03-28T02:39:43.148Z,90.60
2019-03-28T02:42:13.846Z,91.40
2019-03-28T02:44:44.565Z,91.10
2019-03-28T02:47:15.630Z,90.00
2019-03-28T02:49:46.442Z,89.30
2019-03-28T02:52:16.429Z,89.60
2019-03-28T02:54:47.093Z,89.60
2019-03-28T02:57:17.513Z,89.30
2019-03-28T02:59:48.102Z,89.70
2019-03-28T03:02:18.409Z,91.80
2019-03-28T03:04:51.656Z,92.40
2019-03-28T03:07:21.927Z,91.30
2019-03-28T03:09:52.345Z,90.70
2019-03-28T03:12:22.570Z,89.90
2019-03-28T03:14:53.209Z,89.90
2019-03-28T03:17:23.454Z,90.50
2019-03-28T03:19:53.912Z,89.80
2019-03-28T03:22:24.744Z,90.20
2019-03-28T03:24:56.110Z,90.00
2019-03-28T03:27:26.993Z,91.20
2019-03-28T03:29:57.077Z,90.10
2019-03-28T03:32:27.372Z,89.60
2019-03-28T03:34:58.211Z,91.20
2019-03-28T03:37:28.169Z,90.20
2019-03-28T03:39:58.419Z,89.70
2019-03-28T03:42:29.362Z,90.40
2019-03-28T03:44:59.593Z,93.70
2019-03-28T03:47:30.353Z,94.50
2019-03-28T03:50:01.339Z,93.40
2019-03-28T03:52:31.971Z,91.80
2019-03-28T03:55:02.245Z,93.00
2019-03-28T03:57:32.798Z,93.70
2019-03-28T04:00:03.948Z,92.30
2019-03-28T04:02:34.618Z,91.30
2019-03-28T04:05:05.497Z,90.90
2019-03-28T04:07:35.808Z,93.30
2019-03-28T04:10:05.973Z,93.60
2019-03-28T04:12:37.631Z,94.30
2019-03-28T04:15:08.002Z,96.00
2019-03-28T04:17:38.506Z,94.80
2019-03-28T04:20:08.655Z,94.00
2019-03-28T04:22:38.681Z,93.60
2019-03-28T04:25:09.387Z,93.10
2019-03-28T04:27:40.241Z,95.40
2019-03-28T04:30:11.169Z,98.00
2019-03-28T04:32:41.647Z,96.50
2019-03-28T04:35:11.905Z,95.30
2019-03-28T04:37:42.684Z,96.60
2019-03-28T04:40:12.829Z,94.20
2019-03-28T04:42:45.652Z,93.50
2019-03-28T04:45:14.661Z,94.70
2019-03-28T04:47:44.691Z,93.40
2019-03-28T04:50:18.357Z,92.10
2019-03-28T04:52:48.947Z,91.20
2019-03-28T04:55:19.357Z,92.30
2019-03-28T04:57:50.082Z,91.90
2019-03-28T05:00:23.172Z,91.90
2019-03-28T05:02:53.401Z,91.30
2019-03-28T05:05:23.800Z,91.20
2019-03-28T05:07:54.402Z,96.00
2019-03-28T05:10:24.684Z,97.90
2019-03-28T05:13:04.806Z,98.00
2019-03-28T05:15:35.451Z,95.70
2019-03-28T05:18:06.430Z,96.30
2019-03-28T05:20:37.220Z,93.20
2019-03-28T05:23:07.467Z,96.70
2019-03-28T05:25:37.686Z,96.60
2019-03-28T05:28:07.776Z,94.60
2019-03-28T05:30:38.164Z,94.20
2019-03-28T05:33:08.460Z,93.20
2019-03-28T05:35:39.782Z,92.90
2019-03-28T05:38:12.251Z,97.70
2019-03-28T05:40:43.712Z,98.80
2019-03-28T05:43:13.772Z,98.90
2019-03-28T05:45:46.255Z,99.20
2019-03-28T05:48:16.860Z,99.90
2019-03-28T05:50:47.409Z,99.80
2019-03-28T05:53:17.473Z,98.00
2019-03-28T05:55:48.264Z,97.40
2019-03-28T05:58:18.756Z,96.20
2019-03-28T06:00:52.628Z,96.20
2019-03-28T06:03:23.667Z,96.10
2019-03-28T06:05:55.302Z,96.60
2019-03-28T06:08:26.372Z,94.30
2019-03-28T06:10:57.599Z,95.80
2019-03-28T06:13:28.149Z,94.40
2019-03-28T06:16:04.401Z,97.80
2019-03-28T06:18:35.359Z,96.50
2019-03-28T06:21:06.239Z,95.30
2019-03-28T06:23:36.678Z,93.80
2019-03-28T06:26:10.041Z,92.80
2019-03-28T06:28:41.676Z,93.70
2019-03-28T06:31:12.706Z,94.60
2019-03-28T06:33:51.627Z,93.10
2019-03-28T06:36:22.075Z,92.60
2019-03-28T06:38:52.234Z,93.60
2019-03-28T06:41:35.629Z,93.90
2019-03-28T06:44:06.211Z,93.10
2019-03-28T06:46:37.275Z,92.40
2019-03-28T06:49:08.424Z,92.50
2019-03-28T06:51:38.910Z,92.10
2019-03-28T06:54:09.576Z,91.90
2019-03-28T06:56:40.254Z,91.70
2019-03-28T06:59:11.149Z,91.50
2019-03-28T07:01:41.632Z,93.90
2019-03-28T07:04:12.151Z,95.60
2019-03-28T07:06:44.982Z,97.40
2019-03-28T07:09:15.427Z,96.40
2019-03-28T07:11:45.939Z,96.60
2019-03-28T07:14:18.685Z,94.80
2019-03-28T07:16:50.586Z,94.30
2019-03-28T07:19:23.476Z,95.20
2019-03-28T07:21:54.275Z,96.20
2019-03-28T07:24:24.621Z,95.50
2019-03-28T07:26:54.739Z,95.90
2019-03-28T07:29:25.700Z,96.20
2019-03-28T07:31:56.418Z,96.50
2019-03-28T07:34:26.737Z,95.00
2019-03-28T07:36:57.390Z,95.20
2019-03-28T07:39:27.619Z,93.20
2019-03-28T07:41:58.586Z,92.60
2019-03-28T07:44:28.677Z,94.70
2019-03-28T07:46:58.973Z,91.70
2019-03-28T07:49:29.194Z,92.30
2019-03-28T07:52:00.081Z,91.00
2019-03-28T07:54:30.149Z,90.10
2019-03-28T07:57:00.462Z,91.90
2019-03-28T07:59:31.394Z,90.20
2019-03-28T08:02:01.758Z,89.60
2019-03-28T08:04:32.172Z,89.50
2019-03-28T08:07:02.913Z,89.80
2019-03-28T08:09:36.847Z,88.40
2019-03-28T08:12:05.372Z,88.00
2019-03-28T08:14:36.127Z,88.10
2019-03-28T08:17:06.520Z,88.00
2019-03-28T08:19:37.611Z,88.30
2019-03-28T08:22:08.821Z,90.00
2019-03-28T08:24:41.360Z,88.40
2019-03-28T08:27:11.642Z,88.70
2019-03-28T08:29:44.240Z,85.90
2019-03-28T08:32:17.484Z,88.70
2019-03-28T08:34:47.782Z,86.60
2019-03-28T08:37:19.149Z,84.00
2019-03-28T08:39:50.481Z,87.20
2019-03-28T08:42:22.823Z,84.60
2019-03-28T08:44:54.137Z,85.10
2019-03-28T08:47:25.031Z,86.80
2019-03-28T08:49:58.647Z,84.60
2019-03-28T08:52:27.716Z,85.30
2019-03-28T08:55:02.352Z,85.20
2019-03-28T08:57:32.827Z,86.40
2019-03-28T09:00:03.460Z,88.00
2019-03-28T09:02:33.793Z,85.30
2019-03-28T09:05:04.291Z,84.20
2019-03-28T09:07:34.822Z,87.60
2019-03-28T09:10:05.156Z,89.30
2019-03-28T09:12:35.838Z,88.00
2019-03-28T09:15:07.552Z,83.50
2019-03-28T09:17:38.532Z,86.90
2019-03-28T09:20:09.298Z,85.50
2019-03-28T09:22:39.792Z,83.10
2019-03-28T09:25:10.142Z,85.30
2019-03-28T09:27:40.821Z,83.80
2019-03-28T09:30:11.439Z,86.10
2019-03-28T09:32:42.385Z,87.10
2019-03-28T09:35:15.786Z,84.30
2019-03-28T09:37:46.182Z,81.20
2019-03-28T09:40:16.306Z,86.40
2019-03-28T09:42:53.148Z,80.40
2019-03-28T09:45:23.580Z,86.30
2019-03-28T09:47:54.291Z,82.90
2019-03-28T09:50:24.557Z,82.30
2019-03-28T09:52:55.047Z,85.90
2019-03-28T09:55:25.293Z,84.20
2019-03-28T09:57:55.701Z,80.70
2019-03-28T10:00:26.120Z,77.90
2019-03-28T10:02:56.642Z,81.30
2019-03-28T10:05:27.748Z,83.40
2019-03-28T10:07:58.146Z,80.00
2019-03-28T10:10:28.193Z,78.70
2019-03-28T10:13:00.432Z,76.70
2019-03-28T10:15:30.794Z,82.30
2019-03-28T10:18:01.328Z,86.60
2019-03-28T10:20:32.056Z,78.70
2019-03-28T10:23:02.550Z,84.60
2019-03-28T10:25:32.867Z,80.00
2019-03-28T10:28:03.467Z,80.60
2019-03-28T10:30:40.169Z,80.40
2019-03-28T10:33:11.387Z,85.70
2019-03-28T10:35:41.774Z,81.70
2019-03-28T10:38:11.994Z,82.50
2019-03-28T10:40:42.549Z,83.80
2019-03-28T10:43:13.881Z,75.60
2019-03-28T10:45:44.345Z,77.40
2019-03-28T10:48:14.619Z,86.00
2019-03-28T10:50:56.755Z,76.20
2019-03-28T10:53:30.112Z,80.90
2019-03-28T10:56:00.183Z,78.60
2019-03-28T10:58:30.379Z,80.70
2019-03-28T11:01:01.296Z,80.70
2019-03-28T11:06:00.961Z,80.00
2019-03-28T11:08:36.689Z,78.40
2019-03-28T11:11:07.348Z,77.80
2019-03-28T11:13:37.904Z,81.60
2019-03-28T11:16:08.381Z,79.10
2019-03-28T11:18:39.655Z,82.40
2019-03-28T11:21:13.600Z,82.60
2019-03-28T11:23:44.433Z,80.90
2019-03-28T11:26:14.849Z,80.20
2019-03-28T11:28:45.438Z,80.30
2019-03-28T11:31:16.036Z,78.10
2019-03-28T11:33:47.552Z,79.20
2019-03-28T11:36:18.366Z,78.70
2019-03-28T11:51:44.208Z,78.20
2019-03-28T11:54:14.516Z,85.00
2019-03-28T11:56:44.335Z,84.70
2019-03-28T11:59:15.600Z,80.70
2019-03-28T12:01:59.133Z,75.70
2019-03-28T12:04:16.771Z,77.00
2019-03-28T12:06:48.985Z,78.90
2019-03-28T12:09:19.399Z,81.40
2019-03-28T12:11:49.200Z,79.60
2019-03-28T12:14:18.968Z,82.50
2019-03-28T12:16:48.793Z,77.40
2019-03-28T12:19:18.653Z,80.40
2019-03-28T12:21:48.428Z,76.50
2019-03-28T12:24:18.182Z,76.70
2019-03-28T12:26:48.193Z,77.10
2019-03-28T12:29:18.075Z,77.40
2019-03-28T12:31:47.924Z,79.40
2019-03-28T12:34:17.645Z,74.40
2019-03-28T12:36:47.523Z,81.20
2019-03-28T12:39:17.247Z,79.80
2019-03-28T12:41:46.877Z,75.30
2019-03-28T12:44:16.581Z,74.90
2019-03-28T12:46:46.267Z,77.30
2019-03-28T12:49:16.054Z,79.90
2019-03-28T12:51:45.840Z,77.20
2019-03-28T12:54:15.564Z,76.60
2019-03-28T12:56:45.220Z,76.90
2019-03-28T12:59:15.103Z,80.00
2019-03-28T13:01:44.854Z,75.10
2019-03-28T13:04:14.555Z,77.20
2019-03-28T13:06:44.494Z,82.00
2019-03-28T13:09:14.366Z,83.20
2019-03-28T13:11:44.066Z,78.10
2019-03-28T13:14:13.834Z,78.70
2019-03-28T13:16:46.560Z,78.70
2019-03-28T13:19:17.581Z,83.00
2019-03-28T13:21:48.110Z,77.50
2019-03-28T13:24:17.718Z,79.50
2019-03-28T13:26:47.443Z,83.30
2019-03-28T13:29:17.139Z,85.70
2019-03-28T13:31:47.053Z,85.80
2019-03-28T13:34:16.898Z,86.60
2019-03-28T13:36:46.647Z,82.50
2019-03-28T13:39:16.317Z,85.60
2019-03-28T13:41:46.193Z,88.40
2019-03-28T13:44:16.105Z,84.70
2019-03-28T13:46:45.866Z,85.70
2019-03-28T13:49:15.885Z,86.30
2019-03-28T13:51:45.887Z,83.90
2019-03-28T13:54:15.634Z,82.00
2019-03-28T13:56:45.273Z,83.30
2019-03-28T13:59:20.955Z,84.50
2019-03-28T14:01:50.794Z,83.40
2019-03-28T14:04:21.654Z,85.40
2019-03-28T14:06:53.139Z,81.80
2019-03-28T14:09:23.494Z,81.90
2019-03-28T14:12:12.536Z,81.20
2019-03-28T14:14:42.579Z,83.50
2019-03-28T14:17:12.687Z,83.20
2019-03-28T14:19:42.783Z,83.80
2019-03-28T14:22:12.806Z,83.90
2019-03-28T14:24:42.814Z,78.80
2019-03-28T14:27:16.226Z,78.00
2019-03-28T14:29:46.384Z,80.30
2019-03-28T14:32:16.505Z,78.80
2019-03-28T14:34:46.935Z,80.80
2019-03-28T14:37:17.279Z,77.50
2019-03-28T14:39:49.230Z,79.00
2019-03-28T14:42:19.920Z,81.50
2019-03-28T14:44:50.349Z,78.00
2019-03-28T14:47:22.408Z,81.60
2019-03-28T14:49:52.579Z,82.00
2019-03-28T14:52:26.004Z,79.10
2019-03-28T14:54:59.940Z,79.00
2019-03-28T14:57:29.697Z,78.50
2019-03-28T14:59:59.988Z,78.00
2019-03-28T15:02:30.125Z,76.70
2019-03-28T15:05:00.439Z,75.70
2019-03-28T15:07:30.522Z,77.90
2019-03-28T15:10:01.956Z,79.20
2019-03-28T15:12:32.437Z,77.00
2019-03-28T15:15:03.167Z,74.70
2019-03-28T15:17:33.301Z,75.60
2019-03-28T15:20:03.339Z,74.00
2019-03-28T15:22:33.660Z,77.10
2019-03-28T15:25:06.629Z,80.20
2019-03-28T15:27:36.673Z,78.60
2019-03-28T15:30:07.963Z,82.10
2019-03-28T15:32:37.955Z,82.90
2019-03-28T15:35:14.443Z,83.20
2019-03-28T15:37:44.527Z,80.60
2019-03-28T15:40:15.004Z,81.60
2019-03-28T15:42:45.039Z,79.50
2019-03-28T15:45:15.969Z,84.30
2019-03-28T15:47:46.086Z,82.20
2019-03-28T15:50:16.230Z,83.10
2019-03-28T15:52:46.398Z,78.10
2019-03-28T15:55:16.610Z,78.60
2019-03-28T15:57:46.825Z,78.00
2019-03-28T16:00:17.863Z,82.50
2019-03-28T16:02:50.019Z,81.10
2019-03-28T16:05:20.401Z,78.20
2019-03-28T16:07:50.525Z,83.00
2019-03-28T16:10:27.151Z,83.60
2019-03-28T16:12:57.227Z,82.00
2019-03-28T16:15:27.429Z,81.90
2019-03-28T16:17:57.873Z,79.60
2019-03-28T16:20:28.366Z,78.90
2019-03-28T16:23:01.568Z,77.40
2019-03-28T16:25:31.744Z,82.00
2019-03-28T16:28:02.198Z,82.90
2019-03-28T16:30:36.454Z,79.70
2019-03-28T16:33:06.751Z,78.50
2019-03-28T16:35:53.751Z,77.70
2019-03-28T16:38:36.974Z,77.40
2019-03-28T16:41:08.920Z,77.20
2019-03-28T16:43:39.698Z,77.10
2019-03-28T16:48:40.211Z,77.00
2019-03-28T16:51:11.455Z,77.00
2019-03-28T16:53:42.164Z,76.90
2019-03-28T16:56:12.354Z,76.70
2019-03-28T16:58:42.961Z,76.80
2019-03-28T17:01:13.672Z,76.90
2019-03-28T17:03:43.789Z,77.00
2019-03-28T17:06:14.161Z,77.00
2019-03-28T17:08:45.664Z,76.90
2019-03-28T17:11:15.958Z,76.90
2019-03-28T17:13:46.410Z,77.00
2019-03-28T17:16:16.856Z,77.10
2019-03-28T17:18:47.084Z,77.00
2019-03-28T17:21:17.149Z,77.30
2019-03-28T17:23:47.197Z,77.30
2019-03-28T17:26:17.603Z,77.20
2019-03-28T17:28:47.761Z,77.30
2019-03-28T17:31:18.861Z,77.30
2019-03-28T17:33:49.346Z,77.30
2019-03-28T17:36:19.499Z,77.40
2019-03-28T17:38:49.642Z,77.50
2019-03-28T17:41:19.992Z,77.40
2019-03-28T17:43:50.357Z,77.50
2019-03-28T17:46:25.211Z,77.60
2019-03-28T17:48:57.592Z,77.50
2019-03-28T17:51:27.313Z,77.50
2019-03-28T17:53:57.526Z,77.60
2019-03-28T17:56:27.999Z,77.70
2019-03-28T17:58:59.650Z,77.70
2019-03-28T18:01:30.523Z,77.70
2019-03-28T18:04:01.230Z,77.60
2019-03-28T18:06:31.647Z,78.80
2019-03-28T18:09:05.231Z,80.60
2019-03-28T18:11:34.680Z,79.40
2019-03-28T18:14:06.274Z,78.80
2019-03-28T18:16:36.457Z,79.10
2019-03-28T18:19:06.657Z,79.80
2019-03-28T18:21:37.085Z,79.10
2019-03-28T18:24:08.553Z,78.90
2019-03-28T18:26:38.904Z,78.80
2019-03-28T18:29:09.638Z,78.70
2019-03-28T18:31:50.929Z,78.70
2019-03-28T18:34:17.794Z,78.70
2019-03-28T18:36:52.952Z,78.80
2019-03-28T18:39:23.894Z,78.70
2019-03-28T18:41:56.709Z,78.70
2019-03-28T18:44:31.197Z,78.60
2019-03-28T18:47:11.353Z,78.70
2019-03-28T18:49:43.277Z,78.70
2019-03-28T18:52:19.818Z,78.90
2019-03-28T18:54:51.382Z,78.90
2019-03-28T18:57:23.778Z,79.00
2019-03-28T18:59:55.994Z,79.10
2019-03-28T19:02:26.267Z,79.10
2019-03-28T19:04:58.796Z,79.10
2019-03-28T19:07:30.393Z,79.00
2019-03-28T19:10:00.884Z,79.10
2019-03-28T19:12:31.758Z,79.10
2019-03-28T19:15:13.605Z,79.30
2019-03-28T19:17:43.990Z,79.30
2019-03-28T19:20:15.730Z,79.40
2019-03-28T19:22:46.087Z,79.50
2019-03-28T19:25:19.314Z,79.70
2019-03-28T19:27:49.992Z,79.80
2019-03-28T19:30:33.150Z,79.70
2019-03-28T19:33:07.110Z,79.60
2019-03-28T19:35:39.619Z,79.70
2019-03-28T19:38:11.619Z,79.60
2019-03-28T19:40:41.999Z,79.70
2019-03-28T19:43:20.342Z,79.70
2019-03-28T19:45:45.192Z,79.90
2019-03-28T19:48:15.668Z,79.90
2019-03-28T19:50:46.263Z,79.90
2019-03-28T19:53:17.828Z,79.90
2019-03-28T19:55:48.640Z,80.00
2019-03-28T19:58:19.242Z,79.90
2019-03-28T20:00:49.622Z,80.00
2019-03-28T20:03:23.066Z,80.10
2019-03-28T20:05:55.137Z,80.10
2019-03-28T20:08:29.238Z,80.00
2019-03-28T20:11:03.849Z,80.10
2019-03-28T20:13:34.477Z,80.60
2019-03-28T20:16:04.864Z,80.30
2019-03-28T20:18:35.878Z,80.50
2019-03-28T20:21:12.898Z,80.60
2019-03-28T20:23:45.719Z,80.60
2019-03-28T20:26:19.445Z,80.70
2019-03-28T20:28:49.633Z,80.70
2019-03-28T20:31:20.021Z,80.80
2019-03-28T20:33:50.213Z,80.70
2019-03-28T20:36:36.751Z,80.30
2019-03-28T20:39:03.753Z,80.40
2019-03-28T20:41:29.081Z,80.30
2019-03-28T20:44:00.688Z,80.40
2019-03-28T20:46:32.527Z,80.60
2019-03-28T20:49:03.326Z,80.80
2019-03-28T20:51:36.197Z,80.90
2019-03-28T20:54:07.844Z,81.00
2019-03-28T20:56:38.296Z,81.00
2019-03-28T20:59:12.080Z,81.10
2019-03-28T21:01:42.865Z,81.00
2019-03-28T21:04:13.905Z,81.00
2019-03-28T21:06:44.829Z,86.20
2019-03-28T21:09:16.851Z,86.10
2019-03-28T21:11:49.190Z,83.70
2019-03-28T21:14:21.340Z,82.60
2019-03-28T21:16:52.122Z,81.90
2019-03-28T21:19:22.597Z,81.70
2019-03-28T21:21:54.878Z,81.50
2019-03-28T21:24:25.846Z,81.50
2019-03-28T21:27:05.132Z,81.50
2019-03-28T21:29:48.277Z,81.60
2019-03-28T21:32:13.043Z,81.30
2019-03-28T21:34:50.729Z,81.40
2019-03-28T21:37:32.836Z,81.40
2019-03-28T21:40:19.592Z,81.60
2019-03-28T21:43:00.418Z,81.60
2019-03-28T21:45:32.683Z,81.60
2019-03-28T21:48:03.102Z,81.60
2019-03-28T21:50:38.238Z,81.60
2019-03-28T21:53:08.653Z,81.60
2019-03-28T21:55:38.842Z,81.70
2019-03-28T21:58:09.234Z,81.90
2019-03-28T22:00:40.193Z,81.90
2019-03-28T22:03:14.211Z,81.60
2019-03-28T22:05:44.469Z,81.60
2019-03-28T22:08:15.004Z,81.90
2019-03-28T22:10:45.617Z,82.60
2019-03-28T22:13:18.671Z,82.50
2019-03-28T22:15:49.058Z,82.20
2019-03-28T22:18:19.550Z,82.10
2019-03-28T22:20:51.838Z,82.00
2019-03-28T22:23:23.433Z,84.90
2019-03-28T22:25:53.738Z,83.50
2019-03-28T22:28:25.738Z,82.80
2019-03-28T22:30:56.119Z,82.60
2019-03-28T22:33:26.484Z,82.40
2019-03-28T22:35:56.825Z,82.10
2019-03-28T22:38:27.455Z,82.30
2019-03-28T22:40:57.652Z,82.60
2019-03-28T22:43:27.948Z,82.30
2019-03-28T22:45:59.328Z,82.40
2019-03-28T22:48:29.534Z,82.10
2019-03-28T22:50:59.824Z,82.30
2019-03-28T22:53:30.271Z,82.10
2019-03-28T22:56:00.412Z,82.20
2019-03-28T22:58:31.181Z,82.30
2019-03-28T23:01:01.419Z,82.30
2019-03-28T23:03:31.659Z,82.50
2019-03-28T23:06:02.162Z,82.40
2019-03-28T23:08:34.837Z,82.40
2019-03-28T23:13:36.435Z,82.40
2019-03-28T23:16:06.615Z,82.60
2019-03-28T23:18:36.911Z,82.60
2019-03-28T23:21:08.529Z,82.60
2019-03-28T23:23:39.103Z,82.50
2019-03-28T23:26:11.384Z,82.50
2019-03-28T23:28:41.873Z,82.50
2019-03-28T23:33:43.146Z,82.60
2019-03-28T23:36:13.343Z,82.50
2019-03-28T23:41:12.653Z,82.70
2019-03-28T23:43:42.898Z,82.80
2019-03-28T23:46:13.126Z,82.70
2019-03-28T23:48:43.627Z,82.80
2019-03-28T23:51:15.079Z,83.00
2019-03-28T23:56:17.161Z,82.70
2019-03-28T23:58:47.700Z,82.90
